Time;durP1;ratioP1;P1;durP2;ratioP2;P2;SDS_P1;SDS_P2;PMS_P1;PMS_P2;Temp;Humidity;BMP_temperature;BMP_pressure;BME280_temperature;BME280_humidity;BME280_pressure;Samples;Min_cycle;Max_cycle;Signal;HPM_P1;HPM_P2
2021/10/25 00:01:00;;;;;;;2.07;1.00;;;-1.40;49.40;;;;;;4884571;28;20683;-83
2021/10/25 00:03:23;;;;;;;2.27;1.10;;;;;;;;;;4883900;28;20676;-83
2021/10/25 00:05:46;;;;;;;2.43;1.33;;;;;;;;;;4888438;28;20641;-83
2021/10/25 00:08:10;;;;;;;0.93;0.67;;;;;;;;;;4884786;28;20673;-83
2021/10/25 00:10:36;;;;;;;3.73;1.57;;;;;;;;;;4888722;28;20670;-84
2021/10/25 00:12:59;;;;;;;1.67;0.80;;;;;;;;;;4886740;28;20667;-83
2021/10/25 00:15:22;;;;;;;1.97;0.97;;;;;;;;;;4883898;28;20618;-82
2021/10/25 00:17:46;;;;;;;2.73;1.30;;;-1.60;49.50;;;;;;4887015;28;21174;-82
2021/10/25 00:20:11;;;;;;;1.53;0.83;;;-1.50;49.50;;;;;;4886184;28;21229;-81
2021/10/25 00:22:34;;;;;;;4.30;1.93;;;;;;;;;;4882821;28;20674;-82
2021/10/25 00:24:57;;;;;;;1.80;1.00;;;;;;;;;;4884122;28;21171;-82
2021/10/25 00:27:20;;;;;;;1.10;0.70;;;;;;;;;;4885656;28;21221;-82
2021/10/25 00:29:42;;;;;;;2.70;1.37;;;-1.60;48.70;;;;;;4883704;28;20665;-82
2021/10/25 00:32:05;;;;;;;1.47;0.80;;;;;;;;;;4890960;28;20192;-82
2021/10/25 00:34:29;;;;;;;1.53;0.77;;;-1.60;49.10;;;;;;4886948;28;20622;-82
2021/10/25 00:36:52;;;;;;;1.23;0.73;;;;;;;;;;4887227;28;20614;-81
2021/10/25 00:39:15;;;;;;;2.67;1.13;;;;;;;;;;4892790;28;20180;-82
2021/10/25 00:41:37;;;;;;;4.70;1.83;;;;;;;;;;4877318;28;20599;-82
2021/10/25 00:44:00;;;;;;;2.63;1.20;;;;;;;;;;4883064;28;20630;-82
2021/10/25 00:46:23;;;;;;;3.33;1.40;;;;;;;;;;4885903;28;20643;-81
2021/10/25 00:48:46;;;;;;;3.10;1.43;;;;;;;;;;4863807;28;20620;-82
2021/10/25 00:51:12;;;;;;;2.93;1.17;;;-1.80;49.10;;;;;;4888691;28;20629;-82
2021/10/25 00:53:35;;;;;;;3.30;1.30;;;;;;;;;;4878842;28;20622;-82
2021/10/25 00:55:58;;;;;;;1.77;0.87;;;;;;;;;;4887094;28;21142;-82
2021/10/25 00:58:23;;;;;;;2.80;1.20;;;;;;;;;;4884328;28;21012;-82
2021/10/25 01:00:46;;;;;;;7.20;2.97;;;;;;;;;;4889909;28;20679;-82
2021/10/25 01:03:09;;;;;;;1.00;0.53;;;;;;;;;;4876556;28;20707;-82
2021/10/25 01:05:32;;;;;;;2.87;1.07;;;-1.90;49.30;;;;;;4882853;28;20707;-82
2021/10/25 01:07:56;;;;;;;1.17;0.60;;;-1.90;49.20;;;;;;4882340;28;20695;-81
2021/10/25 01:10:19;;;;;;;4.30;1.83;;;;;;;;;;4889660;28;20610;-81
2021/10/25 01:12:42;;;;;;;3.97;1.53;;;-1.80;48.90;;;;;;4875419;28;20682;-82
2021/10/25 01:15:06;;;;;;;2.13;0.90;;;-1.80;48.70;;;;;;4873891;28;20618;-82
2021/10/25 01:17:29;;;;;;;0.93;0.50;;;;;;;;;;4874154;28;20638;-83
2021/10/25 01:19:55;;;;;;;2.00;0.90;;;-1.60;48.40;;;;;;4883586;28;20934;-82
2021/10/25 01:22:19;;;;;;;2.40;1.07;;;-1.50;48.20;;;;;;4884319;28;20651;-82
2021/10/25 01:24:44;;;;;;;2.90;1.20;;;-1.50;47.90;;;;;;4878820;28;20618;-81
2021/10/25 01:27:07;;;;;;;2.63;0.93;;;;;;;;;;4866007;28;20645;-83
2021/10/25 01:29:30;;;;;;;3.77;1.07;;;;;;;;;;4880113;28;20970;-82
2021/10/25 01:31:53;;;;;;;3.00;0.87;;;;;;;;;;4884827;28;20245;-82
2021/10/25 01:34:18;;;;;;;2.73;0.93;;;;;;;;;;4883574;28;20703;-84
2021/10/25 01:36:42;;;;;;;6.47;1.90;;;-1.20;48.20;;;;;;4882134;28;20605;-82
2021/10/25 01:39:05;;;;;;;4.80;1.60;;;;;;;;;;4860835;28;20649;-82
2021/10/25 01:41:28;;;;;;;1.90;0.80;;;;;;;;;;4891257;28;20621;-82
2021/10/25 01:43:54;;;;;;;3.83;1.23;;;;;;;;;;4866373;28;20678;-82
2021/10/25 01:46:17;;;;;;;2.47;0.93;;;;;;;;;;4888507;28;20614;-82
2021/10/25 01:48:40;;;;;;;3.83;1.33;;;;;;;;;;4887769;28;21275;-85
2021/10/25 01:51:04;;;;;;;2.83;1.13;;;-1.20;48.30;;;;;;4856495;28;20677;-83
2021/10/25 01:53:30;;;;;;;1.90;0.73;;;-1.30;48.30;;;;;;4886168;28;20683;-84
2021/10/25 01:55:59;;;;;;;3.57;1.27;;;;;;;;;;4864524;28;20614;-81
2021/10/25 01:58:24;;;;;;;3.57;1.40;;;;;;;;;;4884510;28;20634;-82
2021/10/25 02:00:47;;;;;;;9.13;3.23;;;;;;;;;;4884631;28;20626;-82
2021/10/25 02:03:10;;;;;;;2.43;1.03;;;;;;;;;;4886962;28;21056;-82
2021/10/25 02:05:47;;;;;;;3.67;1.43;;;;;;;;;;4886159;28;20201;-81
2021/10/25 02:08:11;;;;;;;2.33;1.03;;;;;;;;;;4884381;28;21398;-81
2021/10/25 02:11:01;;;;;;;3.27;1.00;;;-1.40;47.70;;;;;;4893725;28;20629;-81
2021/10/25 02:13:30;;;;;;;1.97;0.90;;;;;;;;;;4888181;28;20622;-81
2021/10/25 02:15:57;;;;;;;3.47;1.10;;;-1.40;48.10;;;;;;4888643;28;20645;-81
2021/10/25 02:18:22;;;;;;;2.23;1.00;;;;;;;;;;4881441;28;20275;-81
2021/10/25 02:20:46;;;;;;;5.60;1.87;;;;;;;;;;4879120;28;20676;-82
2021/10/25 02:23:14;;;;;;;2.23;1.00;;;;;;;;;;4887850;28;20625;-81
2021/10/25 02:25:39;;;;;;;4.33;1.57;;;;;;;;;;4883368;28;20618;-81
2021/10/25 02:28:04;;;;;;;1.47;0.70;;;-1.40;48.00;;;;;;4881258;28;20668;-82
2021/10/25 02:30:27;;;;;;;1.77;0.83;;;;;;;;;;4884516;28;20606;-81
2021/10/25 02:32:53;;;;;;;2.70;1.20;;;;;;;;;;4870515;28;20626;-81
2021/10/25 02:35:16;;;;;;;1.80;0.83;;;;;;;;;;4885279;28;20617;-81
2021/10/25 02:37:40;;;;;;;3.50;1.33;;;;;;;;;;4883275;28;20626;-82
2021/10/25 02:40:03;;;;;;;2.57;1.00;;;;;;;;;;4889799;28;20617;-81
2021/10/25 02:42:27;;;;;;;2.73;1.20;;;;;;;;;;4890910;28;20622;-81
2021/10/25 02:44:50;;;;;;;3.03;1.17;;;-1.60;48.50;;;;;;4889448;28;20626;-83
2021/10/25 02:47:13;;;;;;;2.67;1.07;;;;;;;;;;4884944;28;20708;-81
2021/10/25 02:49:36;;;;;;;4.13;1.53;;;;;;;;;;4888003;28;20703;-81
2021/10/25 02:51:59;;;;;;;2.23;0.90;;;;;;;;;;4886824;28;20734;-81
2021/10/25 02:54:25;;;;;;;2.20;1.00;;;;;;;;;;4883622;28;20653;-81
2021/10/25 02:56:49;;;;;;;3.40;1.30;;;;;;;;;;4882481;28;20621;-81
2021/10/25 02:59:14;;;;;;;1.97;0.90;;;;;;;;;;4885391;28;20197;-82
2021/10/25 03:01:40;;;;;;;3.60;1.37;;;-1.90;48.70;;;;;;4888403;28;20687;-82
2021/10/25 03:04:04;;;;;;;2.73;1.20;;;;;;;;;;4878479;28;20654;-81
2021/10/25 03:06:27;;;;;;;2.10;1.00;;;;;;;;;;4884492;28;20671;-81
2021/10/25 03:08:50;;;;;;;1.40;0.70;;;;;;;;;;4887154;28;20642;-81
2021/10/25 03:11:13;;;;;;;3.53;1.40;;;;;;;;;;4889895;28;20652;-82
2021/10/25 03:13:36;;;;;;;4.80;1.80;;;;;;;;;;4880187;28;20686;-81
2021/10/25 03:15:59;;;;;;;2.67;1.10;;;;;;;;;;4886319;28;20680;-81
2021/10/25 03:18:24;;;;;;;2.93;1.30;;;-1.90;48.60;;;;;;4888737;28;20679;-81
2021/10/25 03:20:47;;;;;;;4.63;1.67;;;;;;;;;;4885278;28;21151;-82
2021/10/25 03:23:10;;;;;;;1.80;0.80;;;;;;;;;;4889841;28;20695;-81
2021/10/25 03:25:33;;;;;;;2.57;1.00;;;;;;;;;;4885342;28;21022;-81
2021/10/25 03:27:56;;;;;;;3.70;1.23;;;;;;;;;;4877148;28;20732;-80
2021/10/25 03:30:19;;;;;;;2.17;1.00;;;;;;;;;;4867765;28;20645;-81
2021/10/25 03:32:46;;;;;;;2.80;1.27;;;;;;;;;;4878421;28;20622;-81
2021/10/25 03:35:29;;;;;;;1.77;0.90;;;-2.00;48.00;;;;;;4883172;28;20978;-82
2021/10/25 03:37:54;;;;;;;2.33;0.90;;;;;;;;;;4884376;28;20606;-81
2021/10/25 03:40:16;;;;;;;1.80;0.90;;;;;;;;;;4879420;28;20681;-81
2021/10/25 03:42:42;;;;;;;2.80;1.30;;;;;;;;;;4886225;28;20623;-81
2021/10/25 03:45:11;;;;;;;2.40;1.10;;;-2.20;48.70;;;;;;4883629;28;20661;-82
2021/10/25 03:47:38;;;;;;;3.63;1.57;;;;;;;;;;4884710;28;20629;-82
2021/10/25 03:50:07;;;;;;;1.97;0.90;;;;;;;;;;4884050;28;20642;-81
2021/10/25 03:52:51;;;;;;;3.77;1.67;;;-2.20;48.70;;;;;;4881234;28;20679;-81
2021/10/25 03:55:18;;;;;;;1.60;0.83;;;;;;;;;;4885811;28;20621;-82
2021/10/25 04:26:50;;;;;;;23.07;3.17;;;;;;;;;;4806148;28;20740;-81
2021/10/25 04:29:33;;;;;;;8.90;1.37;;;;;;;;;;4890856;28;20639;-81
2021/10/25 04:32:16;;;;;;;16.17;5.17;;;;;;;;;;4876821;28;20602;-80
2021/10/25 04:34:41;;;;;;;16.17;3.97;;;;;;;;;;4889346;28;20610;-81
2021/10/25 04:37:30;;;;;;;16.97;2.60;;;;;;;;;;4888809;28;20680;-81
2021/10/25 04:40:04;;;;;;;15.53;2.27;;;-2.10;47.60;;;;;;4885461;28;20618;-80
2021/10/25 04:42:27;;;;;;;10.77;1.57;;;;;;;;;;4883468;28;21422;-81
2021/10/25 04:44:50;;;;;;;14.47;1.97;;;-2.10;47.50;;;;;;4885060;28;20618;-81
2021/10/25 04:47:13;;;;;;;9.30;1.40;;;;;;;;;;4867846;28;20622;-81
2021/10/25 04:49:36;;;;;;;15.23;2.10;;;;;;;;;;4883383;28;21286;-81
2021/10/25 04:52:17;;;;;;;23.73;10.23;;;;;;;;;;4884890;28;21140;-81
2021/10/25 04:54:40;;;;;;;20.63;8.43;;;;;;;;;;4887371;28;20652;-81
2021/10/25 04:57:04;;;;;;;5.13;1.10;;;-2.20;47.80;;;;;;4882134;28;20664;-81
2021/10/25 04:59:27;;;;;;;8.07;1.67;;;;;;;;;;4891303;28;20606;-80
2021/10/25 05:01:50;;;;;;;7.33;1.47;;;;;;;;;;4885337;28;20960;-81
2021/10/25 05:04:13;;;;;;;6.77;1.27;;;;;;;;;;4884103;28;20651;-81
2021/10/25 05:06:37;;;;;;;8.30;1.53;;;;;;;;;;4882670;28;21036;-80
2021/10/25 05:09:00;;;;;;;11.27;2.03;;;;;;;;;;4882138;28;21083;-80
2021/10/25 05:11:23;;;;;;;5.73;1.13;;;;;;;;;;4871416;28;20630;-80
2021/10/25 05:13:47;;;;;;;9.03;1.67;;;-2.40;47.90;;;;;;4880183;28;20623;-81
2021/10/25 05:16:12;;;;;;;5.40;1.10;;;-2.30;47.80;;;;;;4877888;28;20618;-82
2021/10/25 05:18:38;;;;;;;11.40;1.93;;;;;;;;;;4885323;28;20630;-81
2021/10/25 05:21:01;;;;;;;7.80;1.30;;;;;;;;;;4881048;28;20614;-82
2021/10/25 05:23:24;;;;;;;8.07;1.30;;;;;;;;;;4884767;28;20630;-81
2021/10/25 05:25:49;;;;;;;8.43;1.33;;;;;;;;;;4890412;28;20614;-82
2021/10/25 05:28:12;;;;;;;8.43;1.33;;;;;;;;;;4878421;28;20665;-82
2021/10/25 05:30:36;;;;;;;8.73;1.47;;;-2.30;47.70;;;;;;4884253;28;20614;-81
2021/10/25 05:33:00;;;;;;;5.93;1.07;;;;;;;;;;4878974;28;20619;-81
2021/10/25 05:35:24;;;;;;;8.53;1.43;;;;;;;;;;4881397;28;20617;-81
2021/10/25 05:37:46;;;;;;;10.30;1.73;;;;;;;;;;4881672;28;20606;-81
2021/10/25 05:40:11;;;;;;;6.60;1.10;;;-2.20;47.70;;;;;;4879760;28;20676;-81
2021/10/25 05:42:44;;;;;;;11.57;1.93;;;;;;;;;;4885045;28;20651;-82
2021/10/25 05:45:07;;;;;;;5.93;1.03;;;;;;;;;;4885043;28;20625;-83
2021/10/25 05:47:31;;;;;;;7.37;1.40;;;-2.10;47.60;;;;;;4882554;28;21134;-81
2021/10/25 05:49:54;;;;;;;5.37;1.07;;;;;;;;;;4888932;28;20699;-81
2021/10/25 05:52:17;;;;;;;10.27;1.60;;;;;;;;;;4877704;28;20622;-81
2021/10/25 05:54:40;;;;;;;11.30;2.03;;;;;;;;;;4883292;28;21039;-80
2021/10/25 05:57:09;;;;;;;6.67;1.30;;;;;;;;;;4866172;28;20658;-81
2021/10/25 05:59:34;;;;;;;5.80;1.10;;;;;;;;;;4887981;28;20637;-84
2021/10/25 06:02:00;;;;;;;6.37;1.27;;;;;;;;;;4881433;28;21032;-80
2021/10/25 06:04:27;;;;;;;6.83;1.20;;;-1.60;47.60;;;;;;4886775;28;21083;-81
2021/10/25 06:07:12;;;;;;;5.37;1.03;;;;;;;;;;4888026;28;20769;-83
2021/10/25 06:09:36;;;;;;;6.37;1.20;;;;;;;;;;4880864;28;20653;-80
2021/10/25 06:12:00;;;;;;;12.33;2.13;;;;;;;;;;4878619;28;21038;-80
2021/10/25 06:14:30;;;;;;;7.60;1.30;;;;;;;;;;4885577;28;20623;-80
2021/10/25 06:16:58;;;;;;;7.37;1.33;;;;;;;;;;4889971;28;20633;-81
2021/10/25 06:19:21;;;;;;;5.07;0.97;;;;;;;;;;4893458;28;20647;-80
2021/10/25 06:21:46;;;;;;;13.47;2.17;;;-0.60;47.20;;;;;;4893249;28;20682;-81
2021/10/25 06:24:13;;;;;;;4.77;1.00;;;;;;;;;;4892883;28;20629;-81
2021/10/25 06:26:45;;;;;;;10.37;1.73;;;;;;;;;;4893213;28;20645;-81
2021/10/25 06:29:09;;;;;;;6.10;1.20;;;;;;;;;;4896683;28;20650;-81
2021/10/25 06:31:32;;;;;;;4.17;0.83;;;;;;;;;;4896643;28;20197;-80
2021/10/25 06:33:58;;;;;;;6.97;1.27;;;;;;;;;;4897346;28;20594;-81
2021/10/25 06:36:37;;;;;;;7.27;1.37;;;;;;;;;;4897810;28;20574;-80
2021/10/25 06:39:21;;;;;;;9.57;1.77;;;0.50;50.00;;;;;;4894680;28;20197;-81
2021/10/25 06:41:50;;;;;;;9.73;1.80;;;;;;;;;;4889978;28;20196;-82
2021/10/25 06:44:19;;;;;;;7.67;1.53;;;;;;;;;;4889779;28;20192;-80
2021/10/25 06:46:43;;;;;;;10.57;1.93;;;;;;;;;;4891356;28;20246;-80
2021/10/25 06:49:06;;;;;;;8.03;1.60;;;;;;;;;;4886872;28;20228;-80
2021/10/25 06:51:30;;;;;;;5.70;1.13;;;;;;;;;;4886901;28;20197;-80
2021/10/25 06:53:53;;;;;;;8.50;1.53;;;;;;;;;;4888586;28;20200;-80
2021/10/25 06:56:18;;;;;;;8.67;1.57;;;0.80;50.10;;;;;;4874643;28;20206;-82
2021/10/25 06:59:35;;;;;;;20.20;2.93;;;0.80;50.00;;;;;;4887143;28;20320;-83
2021/10/25 07:02:45;;;;;;;5.67;1.00;;;1.00;49.90;;;;;;4796229;28;20664;-82
2021/10/25 07:05:34;;;;;;;9.30;1.57;;;1.10;49.80;;;;;;4804993;28;20200;-88
2021/10/25 07:07:58;;;;;;;9.53;1.63;;;;;;;;;;4879280;28;20205;-84
2021/10/25 07:10:21;;;;;;;6.23;1.20;;;;;;;;;;4879810;28;20714;-85
2021/10/25 07:12:45;;;;;;;6.73;1.23;;;1.40;42.10;;;;;;4895259;28;20238;-81
2021/10/25 07:15:10;;;;;;;11.00;1.97;;;1.50;42.10;;;;;;4869920;28;20265;-81
2021/10/25 07:17:38;;;;;;;37.10;6.07;;;;;;;;;;4864668;28;20829;-79
2021/10/25 07:20:15;;;;;;;4.37;1.00;;;;;;;;;;4883405;28;20236;-82
2021/10/25 08:07:07;;;;;;;3.10;1.20;;;;;;;;;;4882053;28;20205;-85
2021/10/25 08:09:57;;;;;;;2.73;1.13;;;;;;;;;;4883242;28;20576;-80
2021/10/25 08:12:23;;;;;;;4.33;1.50;;;;;;;;;;4877986;28;20197;-81
2021/10/25 08:14:49;;;;;;;6.70;2.30;;;7.60;49.30;;;;;;4881819;28;20573;-81
2021/10/25 08:17:18;;;;;;;4.60;1.67;;;7.80;49.50;;;;;;4864037;28;20564;-85
2021/10/25 08:19:43;;;;;;;6.47;2.20;;;;;;;;;;4865881;28;20205;-79
2021/10/25 08:22:08;;;;;;;3.57;1.30;;;8.50;50.10;;;;;;4886341;28;20246;-79
2021/10/25 08:24:34;;;;;;;3.60;1.33;;;8.70;50.90;;;;;;4882008;28;20197;-81
2021/10/25 08:27:22;;;;;;;3.70;1.40;;;8.70;50.80;;;;;;4877352;28;20192;-82
2021/10/25 08:29:47;;;;;;;5.43;1.90;;;8.70;50.80;;;;;;4864651;28;20757;-81
2021/10/25 08:32:17;;;;;;;4.27;1.57;;;8.60;50.70;;;;;;4862943;28;20606;-81
2021/10/25 08:34:52;;;;;;;4.47;1.50;;;8.60;50.70;;;;;;4884395;28;20231;-81
2021/10/25 08:40:17;;;;;;;4.27;1.43;;;;;;;;;;4866959;28;20655;-80
2021/10/25 08:42:41;;;;;;;7.47;2.33;;;;;;;;;;4865671;28;20193;-82
2021/10/25 08:45:12;;;;;;;3.97;1.43;;;8.30;50.50;;;;;;4869843;28;20197;-80
2021/10/25 08:47:38;;;;;;;5.70;2.03;;;;;;;;;;4885379;28;20205;-80
2021/10/25 08:50:03;;;;;;;3.57;1.40;;;8.40;50.40;;;;;;4893124;28;20262;-80
2021/10/25 08:52:26;;;;;;;4.50;1.67;;;8.60;50.40;;;;;;4893329;28;20204;-80
2021/10/25 08:54:50;;;;;;;5.73;1.83;;;8.70;50.50;;;;;;4884138;28;20193;-80
2021/10/25 08:57:13;;;;;;;3.60;1.20;;;;;;;;;;4891292;28;20246;-79
2021/10/25 08:59:36;;;;;;;7.63;1.83;;;;;;;;;;4897447;28;20184;-79
2021/10/25 09:02:09;;;;;;;5.13;1.37;;;9.00;50.90;;;;;;4876101;28;20259;-79
2021/10/25 09:05:03;;;;;;;14.47;2.80;;;9.20;51.10;;;;;;4881793;28;20208;-81
2021/10/25 09:07:26;;;;;;;14.20;2.20;;;;;;;;;;4868183;28;20198;-81
2021/10/25 09:09:49;;;;;;;25.23;3.10;;;;;;;;;;4864441;28;20792;-78
2021/10/25 09:12:15;;;;;;;19.23;2.37;;;;;;;;;;4888554;28;20259;-78
2021/10/25 09:14:45;;;;;;;34.80;4.03;;;;;;;;;;4863188;28;20258;-79
2021/10/25 09:17:10;;;;;;;24.90;3.10;;;10.40;51.80;;;;;;4870331;28;20288;-78
2021/10/25 09:19:53;;;;;;;79.67;35.63;;;;;;;;;;4877274;28;20205;-79
2021/10/25 09:22:21;;;;;;;19.77;2.50;;;12.00;53.20;;;;;;4900440;28;20204;-79
2021/10/25 09:24:52;;;;;;;38.50;4.33;;;12.90;54.20;;;;;;4883164;28;20201;-78
2021/10/25 09:27:29;;;;;;;25.20;3.10;;;14.10;55.20;;;;;;4887241;28;20319;-78
2021/10/25 09:29:54;;;;;;;18.80;6.27;;;;;;;;;;4880483;28;20253;-80
2021/10/25 09:32:18;;;;;;;31.57;6.03;;;;;;;;;;4874344;28;20194;-79
2021/10/25 09:35:04;;;;;;;55.20;49.40;;;16.60;57.40;;;;;;4882010;28;20608;-79
2021/10/25 09:37:54;;;;;;;73.47;58.50;;;18.40;58.50;;;;;;4881443;28;20182;-80
2021/10/25 09:40:26;;;;;;;79.83;68.50;;;20.80;60.10;;;;;;4864663;28;20214;-80
2021/10/25 09:52:13;;;;;;;30.07;21.17;;;29.10;49.40;;;;;;4881330;28;20213;-81
2021/10/25 09:54:53;;;;;;;60.37;40.03;;;30.10;49.80;;;;;;4794178;28;20287;-80
2021/10/25 10:01:29;;;;;;;62.23;56.80;;;28.60;49.50;;;;;;4790045;28;20223;-80
2021/10/25 10:08:20;;;;;;;45.60;32.47;;;23.80;62.50;;;;;;4780011;28;20201;-81
2021/10/25 10:11:00;;;;;;;88.03;79.97;;;22.00;61.70;;;;;;4834641;28;20196;-80
2021/10/25 10:17:48;;;;;;;340.53;202.70;;;19.80;60.70;;;;;;4843304;28;20198;-80
2021/10/25 10:21:04;;;;;;;436.93;203.80;;;19.40;60.60;;;;;;4830405;28;20202;-81
2021/10/25 10:30:14;;;;;;;281.60;160.63;;;;;;;;;;4782985;28;20283;-81
2021/10/25 10:32:43;;;;;;;240.50;168.37;;;;;;;;;;4784619;28;20222;-82
2021/10/25 10:35:44;;;;;;;236.10;189.63;;;28.80;49.50;;;;;;4857612;28;20200;-84
2021/10/25 10:38:10;;;;;;;251.30;204.97;;;30.40;50.20;;;;;;4875005;28;20738;-81
2021/10/25 10:41:08;;;;;;;231.53;207.73;;;;;;;;;;4889840;28;20215;-83
2021/10/25 10:44:12;;;;;;;214.57;195.00;;;31.80;50.60;;;;;;4865412;28;20748;-80
2021/10/25 10:46:43;;;;;;;220.93;201.50;;;31.40;50.60;;;;;;4848949;28;20261;-81
2021/10/25 10:49:06;;;;;;;170.33;158.17;;;;;;;;;;4881688;28;20233;-80
2021/10/25 10:51:30;;;;;;;185.10;170.67;;;29.90;50.10;;;;;;4888771;28;20235;-80
2021/10/25 10:54:03;;;;;;;145.20;134.57;;;27.90;49.50;;;;;;4887205;28;20189;-79
2021/10/25 10:56:29;;;;;;;205.13;186.73;;;;;;;;;;4875931;28;20216;-84
2021/10/25 10:59:04;;;;;;;207.23;187.73;;;;;;;;;;4859557;28;20192;-80
2021/10/25 11:01:29;;;;;;;211.10;188.93;;;24.10;62.90;;;;;;4893403;28;20313;-79
2021/10/25 11:03:59;;;;;;;248.93;200.50;;;23.60;62.70;;;;;;4880110;28;20192;-80
2021/10/25 11:06:21;;;;;;;250.90;190.23;;;;;;;;;;4867648;28;20190;-81
2021/10/25 11:08:47;;;;;;;181.40;162.17;;;25.00;55.90;;;;;;4868523;28;20192;-82
2021/10/25 11:11:13;;;;;;;170.77;153.30;;;25.90;48.70;;;;;;4885963;28;20232;-83
2021/10/25 11:13:42;;;;;;;150.47;136.00;;;25.20;48.50;;;;;;4864749;28;20192;-84
2021/10/25 11:16:08;;;;;;;172.53;154.47;;;27.90;49.40;;;;;;4882590;28;20200;-84
2021/10/25 11:18:35;;;;;;;198.80;180.33;;;29.90;50.10;;;;;;4884368;28;20245;-83
2021/10/25 11:21:18;;;;;;;214.73;197.10;;;31.50;50.70;;;;;;4862826;28;20294;-84
2021/10/25 11:23:54;;;;;;;206.17;189.07;;;32.00;50.90;;;;;;4872110;28;20197;-87
2021/10/25 11:26:19;;;;;;;252.57;231.70;;;33.70;51.40;;;;;;4872936;28;20197;-84
2021/10/25 11:28:57;;;;;;;277.27;253.70;;;35.60;52.00;;;;;;4860431;28;20200;-85
2021/10/25 11:31:20;;;;;;;280.33;258.33;;;;;;;;;;4860824;28;20197;-83
2021/10/25 11:33:48;;;;;;;278.23;255.10;;;37.30;52.70;;;;;;4862291;28;20190;-83
2021/10/25 11:36:46;;;;;;;320.83;292.70;;;38.20;52.90;;;;;;4882414;28;20228;-82
2021/10/25 11:40:08;;;;;;;339.20;309.53;;;37.80;52.80;;;;;;4868879;28;20733;-82
2021/10/25 11:50:55;;;;;;;344.10;313.37;;;39.50;53.40;;;;;;4831328;28;20230;-81
2021/10/25 11:57:25;;;;;;;327.90;296.43;;;37.90;52.90;;;;;;4821478;28;20243;-79
2021/10/25 11:59:56;;;;;;;324.53;296.43;;;38.40;53.10;;;;;;4823286;28;20592;-81
2021/10/25 12:02:23;;;;;;;326.70;297.97;;;38.20;53.00;;;;;;4863689;28;20823;-81
2021/10/25 12:04:57;;;;;;;328.67;302.07;;;39.40;53.30;;;;;;4891852;28;20758;-83
2021/10/25 12:07:20;;;;;;;299.43;276.53;;;;;;;;;;4867645;28;20247;-82
2021/10/25 12:09:43;;;;;;;342.43;314.50;;;;;;;;;;4868482;28;20193;-83
2021/10/25 12:12:09;;;;;;;266.60;248.73;;;40.00;53.60;;;;;;4867673;28;20251;-83
2021/10/25 12:14:36;;;;;;;250.77;234.60;;;39.50;53.40;;;;;;4864934;28;20240;-83
2021/10/25 12:17:00;;;;;;;253.23;237.13;;;40.70;53.80;;;;;;4861473;28;20204;-83
2021/10/25 12:19:23;;;;;;;229.00;212.95;;;;;;;;;;4878276;28;20201;-83
2021/10/25 12:21:47;;;;;;;185.23;172.70;;;41.20;53.90;;;;;;4868434;28;20200;-83
2021/10/25 12:24:13;;;;;;;195.53;181.73;;;41.20;54.00;;;;;;4883971;28;20201;-87
2021/10/25 12:26:40;;;;;;;168.77;158.52;;;41.30;54.00;;;;;;4880194;28;20203;-84
2021/10/25 12:29:16;;;;;;;145.00;135.73;;;39.60;53.50;;;;;;4860931;28;20194;-84
2021/10/25 12:31:40;;;;;;;162.80;152.98;;;40.20;53.60;;;;;;4865935;28;20217;-82
2021/10/25 12:34:06;;;;;;;202.93;190.60;;;;;;;;;;4874668;28;20185;-84
2021/10/25 12:36:36;;;;;;;223.98;209.35;;;42.00;54.20;;;;;;4866296;28;20189;-84
2021/10/25 12:38:59;;;;;;;207.23;195.05;;;;;;;;;;4872976;28;20198;-84
2021/10/25 12:41:22;;;;;;;204.43;191.00;;;;;;;;;;4883272;28;20204;-84
2021/10/25 12:43:47;;;;;;;236.40;219.50;;;41.80;54.20;;;;;;4868022;28;20276;-81
2021/10/25 12:46:11;;;;;;;207.33;192.57;;;42.40;54.40;;;;;;4887216;28;20631;-81
2021/10/25 12:48:43;;;;;;;208.77;195.90;;;42.60;54.50;;;;;;4885205;28;20201;-80
2021/10/25 12:51:08;;;;;;;223.47;207.47;;;;;;;;;;4864623;28;20209;-85
2021/10/25 12:53:57;;;;;;;304.80;282.08;;;42.40;54.40;;;;;;4864850;28;20718;-87
2021/10/25 12:56:26;;;;;;;286.27;265.88;;;42.60;54.40;;;;;;4866372;28;20216;-83
2021/10/25 12:59:07;;;;;;;206.55;190.70;;;42.90;54.50;;;;;;4867228;28;20189;-84
2021/10/25 13:01:37;;;;;;;275.60;256.38;;;42.10;54.30;;;;;;4863288;28;20256;-87
2021/10/25 13:04:03;;;;;;;304.08;282.13;;;41.50;54.10;;;;;;4862005;28;20197;-87
2021/10/25 13:06:29;;;;;;;306.90;283.70;;;;;;;;;;4871905;28;20193;-85
2021/10/25 13:09:06;;;;;;;297.45;275.45;;;37.80;53.00;;;;;;4865062;28;20190;-86
2021/10/25 13:11:29;;;;;;;311.23;287.33;;;;;;;;;;4864111;28;20205;-84
2021/10/25 13:13:52;;;;;;;322.45;296.52;;;;;;;;;;4868767;28;20186;-83
2021/10/25 13:16:18;;;;;;;298.70;276.35;;;34.00;51.80;;;;;;4863678;28;20197;-84
2021/10/25 13:18:41;;;;;;;253.13;234.80;;;;;;;;;;4870358;28;20201;-81
2021/10/25 13:21:05;;;;;;;142.23;132.90;;;32.60;51.20;;;;;;4884548;28;20264;-81
2021/10/25 13:23:28;;;;;;;129.43;120.57;;;;;;;;;;4867268;28;20191;-84
2021/10/25 13:25:50;;;;;;;91.40;83.07;;;;;;;;;;4866256;28;20595;-82
2021/10/25 13:28:13;;;;;;;117.37;108.77;;;;;;;;;;4882614;28;20323;-83
2021/10/25 13:30:39;;;;;;;79.30;73.90;;;26.60;49.10;;;;;;4868819;28;20223;-82
2021/10/25 13:33:02;;;;;;;69.87;63.53;;;;;;;;;;4868504;28;20221;-82
2021/10/25 13:35:25;;;;;;;46.60;41.90;;;;;;;;;;4872504;28;20201;-82
2021/10/25 13:40:34;;;;;;;125.50;115.23;;;;;;;;;;4869104;28;20189;-83
2021/10/25 13:42:57;;;;;;;105.30;97.87;;;21.00;61.60;;;;;;4869425;28;20205;-83
2021/10/25 13:45:20;;;;;;;109.53;99.90;;;;;;;;;;4870344;28;20196;-83
2021/10/25 13:47:43;;;;;;;80.83;73.43;;;;;;;;;;4868174;28;20623;-82
2021/10/25 13:50:07;;;;;;;87.23;80.37;;;19.80;61.00;;;;;;4886854;28;20280;-83
2021/10/25 13:52:29;;;;;;;114.13;103.73;;;;;;;;;;4873442;28;20552;-83
2021/10/25 13:54:54;;;;;;;146.27;130.70;;;19.30;60.80;;;;;;4887842;28;20655;-83
2021/10/25 13:57:20;;;;;;;135.57;122.60;;;;;;;;;;4870539;28;20198;-81
2021/10/25 13:59:43;;;;;;;156.97;128.03;;;;;;;;;;4882796;28;20709;-81
2021/10/25 14:02:10;;;;;;;163.20;145.47;;;18.80;60.60;;;;;;4864198;28;20236;-83
2021/10/25 14:04:33;;;;;;;160.53;133.07;;;;;;;;;;4870915;28;20240;-83
2021/10/25 14:06:56;;;;;;;135.07;121.23;;;;;;;;;;4870906;28;20205;-83
2021/10/25 14:09:19;;;;;;;146.27;130.80;;;;;;;;;;4879725;28;20191;-81
2021/10/25 14:11:45;;;;;;;171.93;131.63;;;18.10;60.10;;;;;;4875021;28;20248;-82
2021/10/25 14:14:16;;;;;;;194.07;145.27;;;;;;;;;;4893079;28;20602;-84
2021/10/25 14:16:49;;;;;;;154.77;125.07;;;;;;;;;;4862123;28;20220;-83
2021/10/25 14:19:11;;;;;;;65.23;58.93;;;;;;;;;;4868834;28;20248;-84
2021/10/25 14:21:36;;;;;;;55.03;45.47;;;17.00;59.60;;;;;;4875470;28;20725;-83
2021/10/25 14:23:58;;;;;;;101.80;91.50;;;;;;;;;;4871372;28;20186;-83
2021/10/25 14:26:21;;;;;;;131.03;114.20;;;;;;;;;;4868992;28;20200;-82
2021/10/25 14:28:45;;;;;;;145.13;114.13;;;16.40;59.20;;;;;;4868392;28;20190;-83
2021/10/25 14:31:12;;;;;;;120.53;107.90;;;;;;;;;;4862459;28;20202;-83
2021/10/25 14:33:36;;;;;;;151.13;120.57;;;;;;;;;;4888251;28;20247;-82
2021/10/25 14:35:59;;;;;;;157.43;117.00;;;;;;;;;;4871270;28;20645;-83
2021/10/25 14:38:33;;;;;;;100.77;90.20;;;;;;;;;;4870384;28;20189;-84
2021/10/25 14:41:05;;;;;;;90.30;81.53;;;;;;;;;;4886141;28;20189;-82
2021/10/25 14:43:33;;;;;;;83.33;75.10;;;;;;;;;;4870809;28;20664;-81
2021/10/25 14:46:04;;;;;;;79.27;71.93;;;14.70;58.40;;;;;;4869231;28;20247;-81
2021/10/25 14:48:39;;;;;;;57.40;51.77;;;;;;;;;;4869356;28;20268;-81
2021/10/25 14:53:46;;;;;;;34.80;31.23;;;;;;;;;;4890148;28;20636;-81
2021/10/25 14:56:10;;;;;;;30.00;24.87;;;;;;;;;;4873965;28;20743;-81
2021/10/25 14:58:34;;;;;;;36.40;24.27;;;13.50;57.80;;;;;;4876100;28;20235;-81
2021/10/25 15:00:59;;;;;;;27.40;16.30;;;13.30;57.60;;;;;;4876337;28;20243;-81
2021/10/25 15:03:22;;;;;;;34.97;17.03;;;13.00;57.40;;;;;;4876950;28;20312;-81
2021/10/25 15:05:46;;;;;;;23.13;13.60;;;;;;;;;;4876176;28;20232;-81
2021/10/25 15:08:09;;;;;;;22.77;13.23;;;;;;;;;;4876309;28;20239;-81
2021/10/25 15:10:31;;;;;;;27.30;15.90;;;;;;;;;;4877629;28;20690;-81
2021/10/25 15:12:54;;;;;;;37.13;17.50;;;;;;;;;;4877367;28;20205;-81
2021/10/25 15:15:17;;;;;;;25.73;17.07;;;;;;;;;;4859641;28;21099;-80
2021/10/25 15:17:42;;;;;;;53.67;25.80;;;11.50;56.50;;;;;;4863102;28;20263;-80
2021/10/25 15:20:07;;;;;;;35.60;31.93;;;11.40;56.40;;;;;;4881123;28;20193;-80
2021/10/25 15:22:29;;;;;;;64.53;54.00;;;;;;;;;;4884376;28;20200;-81
2021/10/25 15:24:53;;;;;;;104.47;72.63;;;;;;;;;;4865987;28;20209;-80
2021/10/25 15:27:16;;;;;;;61.77;55.40;;;;;;;;;;4869429;28;20207;-80
2021/10/25 15:29:39;;;;;;;63.70;50.07;;;;;;;;;;4887216;28;20188;-80
2021/10/25 15:32:02;;;;;;;80.80;72.17;;;;;;;;;;4886962;28;20255;-81
2021/10/25 15:34:26;;;;;;;60.53;52.30;;;10.50;55.70;;;;;;4878616;28;20225;-81
2021/10/25 15:36:49;;;;;;;65.40;47.37;;;;;;;;;;4869722;28;20194;-80
2021/10/25 15:39:12;;;;;;;60.17;44.17;;;;;;;;;;4872914;28;20193;-82
2021/10/25 15:41:34;;;;;;;43.70;39.40;;;;;;;;;;4886968;28;20247;-80